sensor_id;sensor_type;location;lat;lon;timestamp;temperature;humidity
32626;DHT22;19038;50.922;11.880;2022-09-30T00:02:28;10.50;75.60
32626;DHT22;19038;50.922;11.880;2022-09-30T00:07:28;10.50;75.50
32626;DHT22;19038;50.922;11.880;2022-09-30T00:12:28;10.40;75.40
32626;DHT22;19038;50.922;11.880;2022-09-30T00:17:28;10.40;75.30
32626;DHT22;19038;50.922;11.880;2022-09-30T00:22:28;10.30;75.50
32626;DHT22;19038;50.922;11.880;2022-09-30T00:27:28;10.30;75.10
32626;DHT22;19038;50.922;11.880;2022-09-30T00:32:28;10.20;76.00
32626;DHT22;19038;50.922;11.880;2022-09-30T00:37:28;10.20;75.20
32626;DHT22;19038;50.922;11.880;2022-09-30T00:42:28;10.10;75.40
32626;DHT22;19038;50.922;11.880;2022-09-30T00:47:39;10.10;75.70
32626;DHT22;19038;50.922;11.880;2022-09-30T00:52:28;10.10;75.70
32626;DHT22;19038;50.922;11.880;2022-09-30T00:57:28;10.00;75.70
32626;DHT22;19038;50.922;11.880;2022-09-30T01:02:28;10.00;75.80
32626;DHT22;19038;50.922;11.880;2022-09-30T01:07:28;10.00;75.80
32626;DHT22;19038;50.922;11.880;2022-09-30T01:12:28;10.10;76.00
32626;DHT22;19038;50.922;11.880;2022-09-30T01:27:34;10.10;76.40
32626;DHT22;19038;50.922;11.880;2022-09-30T01:32:33;10.20;76.20
32626;DHT22;19038;50.922;11.880;2022-09-30T01:52:31;10.20;76.70
32626;DHT22;19038;50.922;11.880;2022-09-30T01:57:30;10.20;76.80
32626;DHT22;19038;50.922;11.880;2022-09-30T02:02:29;10.10;76.50
32626;DHT22;19038;50.922;11.880;2022-09-30T02:07:30;10.20;76.60
32626;DHT22;19038;50.922;11.880;2022-09-30T02:12:29;10.20;76.80
32626;DHT22;19038;50.922;11.880;2022-09-30T02:17:29;10.20;76.90
32626;DHT22;19038;50.922;11.880;2022-09-30T02:22:30;10.10;76.90
32626;DHT22;19038;50.922;11.880;2022-09-30T02:27:33;10.10;77.00
32626;DHT22;19038;50.922;11.880;2022-09-30T02:32:30;10.10;77.00
32626;DHT22;19038;50.922;11.880;2022-09-30T02:37:30;10.20;76.80
32626;DHT22;19038;50.922;11.880;2022-09-30T02:42:28;10.20;76.60
32626;DHT22;19038;50.922;11.880;2022-09-30T02:47:32;10.20;76.60
32626;DHT22;19038;50.922;11.880;2022-09-30T03:02:28;10.20;76.70
32626;DHT22;19038;50.922;11.880;2022-09-30T03:07:28;10.10;76.60
32626;DHT22;19038;50.922;11.880;2022-09-30T03:12:33;10.10;76.70
32626;DHT22;19038;50.922;11.880;2022-09-30T03:17:35;10.00;76.70
32626;DHT22;19038;50.922;11.880;2022-09-30T03:32:36;9.90;78.00
32626;DHT22;19038;50.922;11.880;2022-09-30T03:47:29;9.80;77.90
32626;DHT22;19038;50.922;11.880;2022-09-30T03:52:29;9.80;78.10
32626;DHT22;19038;50.922;11.880;2022-09-30T03:57:28;9.80;78.10
32626;DHT22;19038;50.922;11.880;2022-09-30T04:02:28;9.80;78.00
32626;DHT22;19038;50.922;11.880;2022-09-30T04:07:28;9.80;78.30
32626;DHT22;19038;50.922;11.880;2022-09-30T04:12:28;9.80;78.30
32626;DHT22;19038;50.922;11.880;2022-09-30T04:17:28;9.80;78.60
32626;DHT22;19038;50.922;11.880;2022-09-30T04:22:28;9.80;78.30
32626;DHT22;19038;50.922;11.880;2022-09-30T04:27:28;9.80;78.40
32626;DHT22;19038;50.922;11.880;2022-09-30T04:32:28;9.80;78.60
32626;DHT22;19038;50.922;11.880;2022-09-30T04:37:28;9.80;78.50
32626;DHT22;19038;50.922;11.880;2022-09-30T04:42:28;9.80;78.60
32626;DHT22;19038;50.922;11.880;2022-09-30T04:47:29;9.80;78.70
32626;DHT22;19038;50.922;11.880;2022-09-30T04:52:29;9.90;78.30
32626;DHT22;19038;50.922;11.880;2022-09-30T04:57:29;9.90;78.00
32626;DHT22;19038;50.922;11.880;2022-09-30T05:02:29;9.90;78.50
32626;DHT22;19038;50.922;11.880;2022-09-30T05:07:29;9.80;78.80
32626;DHT22;19038;50.922;11.880;2022-09-30T05:12:29;9.90;78.70
32626;DHT22;19038;50.922;11.880;2022-09-30T05:17:29;9.90;78.60
32626;DHT22;19038;50.922;11.880;2022-09-30T05:22:29;9.90;78.70
32626;DHT22;19038;50.922;11.880;2022-09-30T05:27:29;10.00;77.20
32626;DHT22;19038;50.922;11.880;2022-09-30T05:32:29;10.00;77.20
32626;DHT22;19038;50.922;11.880;2022-09-30T05:37:29;10.10;77.00
32626;DHT22;19038;50.922;11.880;2022-09-30T05:42:29;10.10;77.30
32626;DHT22;19038;50.922;11.880;2022-09-30T05:47:29;10.00;77.60
32626;DHT22;19038;50.922;11.880;2022-09-30T05:52:29;10.00;77.60
32626;DHT22;19038;50.922;11.880;2022-09-30T05:57:29;10.00;77.60
32626;DHT22;19038;50.922;11.880;2022-09-30T06:02:29;10.00;77.30
32626;DHT22;19038;50.922;11.880;2022-09-30T06:07:29;10.00;77.00
32626;DHT22;19038;50.922;11.880;2022-09-30T06:12:29;10.00;77.40
32626;DHT22;19038;50.922;11.880;2022-09-30T06:17:29;10.00;77.70
32626;DHT22;19038;50.922;11.880;2022-09-30T06:22:29;10.00;77.80
32626;DHT22;19038;50.922;11.880;2022-09-30T06:27:29;10.00;78.10
32626;DHT22;19038;50.922;11.880;2022-09-30T06:32:29;10.00;78.20
32626;DHT22;19038;50.922;11.880;2022-09-30T06:37:29;10.00;78.20
32626;DHT22;19038;50.922;11.880;2022-09-30T06:42:29;10.10;78.60
32626;DHT22;19038;50.922;11.880;2022-09-30T06:47:29;10.10;79.00
32626;DHT22;19038;50.922;11.880;2022-09-30T06:52:29;10.10;79.30
32626;DHT22;19038;50.922;11.880;2022-09-30T06:57:29;10.20;79.30
32626;DHT22;19038;50.922;11.880;2022-09-30T07:02:29;10.30;79.70
32626;DHT22;19038;50.922;11.880;2022-09-30T07:07:29;10.30;79.60
32626;DHT22;19038;50.922;11.880;2022-09-30T07:12:29;10.40;80.40
32626;DHT22;19038;50.922;11.880;2022-09-30T07:17:29;10.40;80.20
32626;DHT22;19038;50.922;11.880;2022-09-30T07:22:29;10.50;80.70
32626;DHT22;19038;50.922;11.880;2022-09-30T07:27:30;10.60;80.40
32626;DHT22;19038;50.922;11.880;2022-09-30T07:32:29;10.70;80.70
32626;DHT22;19038;50.922;11.880;2022-09-30T07:37:29;10.80;80.80
32626;DHT22;19038;50.922;11.880;2022-09-30T07:42:29;10.90;80.20
32626;DHT22;19038;50.922;11.880;2022-09-30T07:47:29;11.00;80.60
32626;DHT22;19038;50.922;11.880;2022-09-30T07:52:29;11.10;80.50
32626;DHT22;19038;50.922;11.880;2022-09-30T07:57:29;11.30;80.70
32626;DHT22;19038;50.922;11.880;2022-09-30T08:02:29;11.40;80.30
32626;DHT22;19038;50.922;11.880;2022-09-30T08:07:29;11.60;80.10
32626;DHT22;19038;50.922;11.880;2022-09-30T08:12:29;11.70;80.10
32626;DHT22;19038;50.922;11.880;2022-09-30T08:17:29;11.90;79.90
32626;DHT22;19038;50.922;11.880;2022-09-30T08:22:29;12.00;79.20
32626;DHT22;19038;50.922;11.880;2022-09-30T08:27:29;12.20;77.60
32626;DHT22;19038;50.922;11.880;2022-09-30T08:32:29;12.30;76.80
32626;DHT22;19038;50.922;11.880;2022-09-30T08:37:29;12.50;77.10
32626;DHT22;19038;50.922;11.880;2022-09-30T08:42:36;12.60;77.30
32626;DHT22;19038;50.922;11.880;2022-09-30T08:47:37;12.80;75.80
32626;DHT22;19038;50.922;11.880;2022-09-30T08:52:32;12.90;76.10
32626;DHT22;19038;50.922;11.880;2022-09-30T08:57:33;13.10;75.80
32626;DHT22;19038;50.922;11.880;2022-09-30T09:02:30;13.20;74.80
32626;DHT22;19038;50.922;11.880;2022-09-30T09:12:36;13.40;74.80
32626;DHT22;19038;50.922;11.880;2022-09-30T09:17:35;13.40;75.20
32626;DHT22;19038;50.922;11.880;2022-09-30T09:22:29;13.70;74.00
32626;DHT22;19038;50.922;11.880;2022-09-30T09:27:36;13.80;73.50
32626;DHT22;19038;50.922;11.880;2022-09-30T09:32:29;14.00;72.70
32626;DHT22;19038;50.922;11.880;2022-09-30T09:37:33;14.10;70.80
32626;DHT22;19038;50.922;11.880;2022-09-30T09:42:36;14.30;71.10
32626;DHT22;19038;50.922;11.880;2022-09-30T09:47:29;14.30;68.80
32626;DHT22;19038;50.922;11.880;2022-09-30T09:57:29;14.30;70.60
32626;DHT22;19038;50.922;11.880;2022-09-30T10:02:30;14.50;70.20
32626;DHT22;19038;50.922;11.880;2022-09-30T10:07:31;14.60;69.20
32626;DHT22;19038;50.922;11.880;2022-09-30T10:12:29;14.80;66.60
32626;DHT22;19038;50.922;11.880;2022-09-30T10:17:31;15.00;67.60
32626;DHT22;19038;50.922;11.880;2022-09-30T10:22:30;15.10;66.40
32626;DHT22;19038;50.922;11.880;2022-09-30T10:27:31;15.30;66.70
32626;DHT22;19038;50.922;11.880;2022-09-30T10:32:29;15.40;66.20
32626;DHT22;19038;50.922;11.880;2022-09-30T10:37:29;15.60;65.80
32626;DHT22;19038;50.922;11.880;2022-09-30T10:42:31;15.60;64.70
32626;DHT22;19038;50.922;11.880;2022-09-30T10:47:29;15.60;65.30
32626;DHT22;19038;50.922;11.880;2022-09-30T10:52:30;15.70;63.20
32626;DHT22;19038;50.922;11.880;2022-09-30T11:02:33;15.80;63.50
32626;DHT22;19038;50.922;11.880;2022-09-30T11:17:31;16.00;61.80
32626;DHT22;19038;50.922;11.880;2022-09-30T11:27:33;16.00;61.60
32626;DHT22;19038;50.922;11.880;2022-09-30T11:42:35;16.40;61.20
32626;DHT22;19038;50.922;11.880;2022-09-30T11:57:31;16.50;62.10
32626;DHT22;19038;50.922;11.880;2022-09-30T12:02:32;16.50;62.20
32626;DHT22;19038;50.922;11.880;2022-09-30T12:07:35;16.50;62.70
32626;DHT22;19038;50.922;11.880;2022-09-30T12:12:29;16.50;60.90
32626;DHT22;19038;50.922;11.880;2022-09-30T12:17:33;16.70;59.90
32626;DHT22;19038;50.922;11.880;2022-09-30T12:22:31;16.70;59.90
32626;DHT22;19038;50.922;11.880;2022-09-30T12:27:32;16.70;59.30
32626;DHT22;19038;50.922;11.880;2022-09-30T12:42:33;17.00;59.10
32626;DHT22;19038;50.922;11.880;2022-09-30T12:47:37;16.90;58.30
32626;DHT22;19038;50.922;11.880;2022-09-30T12:52:30;16.90;58.60
32626;DHT22;19038;50.922;11.880;2022-09-30T12:57:31;16.80;57.60
32626;DHT22;19038;50.922;11.880;2022-09-30T13:02:32;16.90;58.60
32626;DHT22;19038;50.922;11.880;2022-09-30T13:07:30;16.80;59.30
32626;DHT22;19038;50.922;11.880;2022-09-30T13:17:30;16.70;59.30
32626;DHT22;19038;50.922;11.880;2022-09-30T13:22:40;16.80;59.00
32626;DHT22;19038;50.922;11.880;2022-09-30T13:32:34;17.00;56.60
32626;DHT22;19038;50.922;11.880;2022-09-30T13:37:33;17.00;56.80
32626;DHT22;19038;50.922;11.880;2022-09-30T13:42:30;17.00;57.00
32626;DHT22;19038;50.922;11.880;2022-09-30T13:52:31;17.00;55.90
32626;DHT22;19038;50.922;11.880;2022-09-30T13:57:34;17.00;57.20
32626;DHT22;19038;50.922;11.880;2022-09-30T14:07:34;17.00;57.50
32626;DHT22;19038;50.922;11.880;2022-09-30T14:12:34;16.90;57.80
32626;DHT22;19038;50.922;11.880;2022-09-30T14:17:36;16.90;57.20
32626;DHT22;19038;50.922;11.880;2022-09-30T14:22:30;16.90;56.50
32626;DHT22;19038;50.922;11.880;2022-09-30T14:27:32;16.90;57.60
32626;DHT22;19038;50.922;11.880;2022-09-30T14:32:31;17.00;57.30
32626;DHT22;19038;50.922;11.880;2022-09-30T14:37:32;17.00;57.70
32626;DHT22;19038;50.922;11.880;2022-09-30T14:42:30;17.00;56.90
32626;DHT22;19038;50.922;11.880;2022-09-30T14:47:31;17.00;57.20
32626;DHT22;19038;50.922;11.880;2022-09-30T14:52:32;17.10;58.10
32626;DHT22;19038;50.922;11.880;2022-09-30T14:57:30;17.20;58.10
32626;DHT22;19038;50.922;11.880;2022-09-30T15:02:30;17.10;58.00
32626;DHT22;19038;50.922;11.880;2022-09-30T15:07:30;17.10;58.80
32626;DHT22;19038;50.922;11.880;2022-09-30T15:12:30;17.10;58.70
32626;DHT22;19038;50.922;11.880;2022-09-30T15:22:30;17.10;60.80
32626;DHT22;19038;50.922;11.880;2022-09-30T15:27:30;17.00;60.60
32626;DHT22;19038;50.922;11.880;2022-09-30T15:32:31;16.90;60.50
32626;DHT22;19038;50.922;11.880;2022-09-30T15:37:30;16.80;60.90
32626;DHT22;19038;50.922;11.880;2022-09-30T15:42:32;16.80;60.80
32626;DHT22;19038;50.922;11.880;2022-09-30T15:47:30;16.80;60.30
32626;DHT22;19038;50.922;11.880;2022-09-30T16:02:30;16.80;62.30
32626;DHT22;19038;50.922;11.880;2022-09-30T16:07:30;16.70;62.20
32626;DHT22;19038;50.922;11.880;2022-09-30T16:12:31;16.70;63.50
32626;DHT22;19038;50.922;11.880;2022-09-30T16:17:32;16.60;62.80
32626;DHT22;19038;50.922;11.880;2022-09-30T16:27:30;16.30;64.30
32626;DHT22;19038;50.922;11.880;2022-09-30T16:32:31;16.20;65.00
32626;DHT22;19038;50.922;11.880;2022-09-30T16:37:30;16.20;65.60
32626;DHT22;19038;50.922;11.880;2022-09-30T16:42:30;16.10;65.80
32626;DHT22;19038;50.922;11.880;2022-09-30T16:47:30;16.00;66.30
32626;DHT22;19038;50.922;11.880;2022-09-30T16:52:30;15.80;67.60
32626;DHT22;19038;50.922;11.880;2022-09-30T16:57:30;15.70;67.30
32626;DHT22;19038;50.922;11.880;2022-09-30T17:02:30;15.60;68.20
32626;DHT22;19038;50.922;11.880;2022-09-30T17:07:30;15.40;68.40
32626;DHT22;19038;50.922;11.880;2022-09-30T17:12:30;15.30;68.80
32626;DHT22;19038;50.922;11.880;2022-09-30T17:17:30;15.30;69.00
32626;DHT22;19038;50.922;11.880;2022-09-30T17:22:30;15.20;69.30
32626;DHT22;19038;50.922;11.880;2022-09-30T17:27:30;15.10;69.60
32626;DHT22;19038;50.922;11.880;2022-09-30T17:32:30;15.00;69.80
32626;DHT22;19038;50.922;11.880;2022-09-30T17:37:30;14.90;69.90
32626;DHT22;19038;50.922;11.880;2022-09-30T17:42:31;14.80;69.70
32626;DHT22;19038;50.922;11.880;2022-09-30T17:47:30;14.60;69.60
32626;DHT22;19038;50.922;11.880;2022-09-30T17:52:30;14.40;69.60
32626;DHT22;19038;50.922;11.880;2022-09-30T17:57:33;14.30;69.30
32626;DHT22;19038;50.922;11.880;2022-09-30T18:02:30;14.20;68.90
32626;DHT22;19038;50.922;11.880;2022-09-30T18:07:30;14.10;68.80
32626;DHT22;19038;50.922;11.880;2022-09-30T18:12:30;13.90;68.80
32626;DHT22;19038;50.922;11.880;2022-09-30T18:17:30;13.80;68.70
32626;DHT22;19038;50.922;11.880;2022-09-30T18:22:30;13.70;68.70
32626;DHT22;19038;50.922;11.880;2022-09-30T18:27:30;13.50;69.10
32626;DHT22;19038;50.922;11.880;2022-09-30T18:32:30;13.40;69.40
32626;DHT22;19038;50.922;11.880;2022-09-30T18:37:30;13.40;69.60
32626;DHT22;19038;50.922;11.880;2022-09-30T18:47:30;13.20;69.40
32626;DHT22;19038;50.922;11.880;2022-09-30T18:52:30;13.10;69.60
32626;DHT22;19038;50.922;11.880;2022-09-30T18:57:30;13.00;69.70
32626;DHT22;19038;50.922;11.880;2022-09-30T19:02:30;13.00;69.70
32626;DHT22;19038;50.922;11.880;2022-09-30T19:07:30;12.90;70.00
32626;DHT22;19038;50.922;11.880;2022-09-30T19:12:32;12.80;69.90
32626;DHT22;19038;50.922;11.880;2022-09-30T19:17:30;12.70;70.10
32626;DHT22;19038;50.922;11.880;2022-09-30T19:22:31;12.60;70.30
32626;DHT22;19038;50.922;11.880;2022-09-30T19:27:30;12.50;70.20
32626;DHT22;19038;50.922;11.880;2022-09-30T19:32:30;12.40;70.00
32626;DHT22;19038;50.922;11.880;2022-09-30T19:37:30;12.30;69.60
32626;DHT22;19038;50.922;11.880;2022-09-30T19:42:30;12.20;69.70
32626;DHT22;19038;50.922;11.880;2022-09-30T19:47:30;12.10;69.50
32626;DHT22;19038;50.922;11.880;2022-09-30T19:52:30;12.00;69.40
32626;DHT22;19038;50.922;11.880;2022-09-30T19:57:31;11.90;69.60
32626;DHT22;19038;50.922;11.880;2022-09-30T20:02:33;11.80;69.50
32626;DHT22;19038;50.922;11.880;2022-09-30T20:07:30;11.70;69.60
32626;DHT22;19038;50.922;11.880;2022-09-30T20:12:30;11.60;69.70
32626;DHT22;19038;50.922;11.880;2022-09-30T20:17:30;11.50;70.00
32626;DHT22;19038;50.922;11.880;2022-09-30T20:22:30;11.50;70.00
32626;DHT22;19038;50.922;11.880;2022-09-30T20:27:30;11.40;69.80
32626;DHT22;19038;50.922;11.880;2022-09-30T20:32:30;11.30;69.90
32626;DHT22;19038;50.922;11.880;2022-09-30T20:37:30;11.20;69.90
32626;DHT22;19038;50.922;11.880;2022-09-30T20:42:30;11.10;69.80
32626;DHT22;19038;50.922;11.880;2022-09-30T20:47:30;11.00;69.70
32626;DHT22;19038;50.922;11.880;2022-09-30T20:52:30;11.00;69.60
32626;DHT22;19038;50.922;11.880;2022-09-30T20:57:30;10.90;69.70
32626;DHT22;19038;50.922;11.880;2022-09-30T21:02:30;10.80;69.80
32626;DHT22;19038;50.922;11.880;2022-09-30T21:07:30;10.80;69.80
32626;DHT22;19038;50.922;11.880;2022-09-30T21:12:30;10.70;69.90
32626;DHT22;19038;50.922;11.880;2022-09-30T21:17:30;10.70;69.90
32626;DHT22;19038;50.922;11.880;2022-09-30T21:22:30;10.70;69.70
32626;DHT22;19038;50.922;11.880;2022-09-30T21:27:30;10.60;69.60
32626;DHT22;19038;50.922;11.880;2022-09-30T21:32:30;10.80;69.80
32626;DHT22;19038;50.922;11.880;2022-09-30T21:37:30;10.60;69.60
32626;DHT22;19038;50.922;11.880;2022-09-30T21:42:30;10.50;69.70
32626;DHT22;19038;50.922;11.880;2022-09-30T21:47:30;10.50;69.70
32626;DHT22;19038;50.922;11.880;2022-09-30T21:52:30;10.40;70.00
32626;DHT22;19038;50.922;11.880;2022-09-30T21:57:30;10.40;69.80
32626;DHT22;19038;50.922;11.880;2022-09-30T22:02:30;10.40;69.90
32626;DHT22;19038;50.922;11.880;2022-09-30T22:07:30;10.30;69.80
32626;DHT22;19038;50.922;11.880;2022-09-30T22:12:30;10.30;70.00
32626;DHT22;19038;50.922;11.880;2022-09-30T22:17:30;10.20;69.70
32626;DHT22;19038;50.922;11.880;2022-09-30T22:22:30;10.20;69.90
32626;DHT22;19038;50.922;11.880;2022-09-30T22:27:30;10.20;70.00
32626;DHT22;19038;50.922;11.880;2022-09-30T22:32:30;10.10;70.00
32626;DHT22;19038;50.922;11.880;2022-09-30T22:37:30;10.00;70.10
32626;DHT22;19038;50.922;11.880;2022-09-30T22:42:30;10.00;70.20
32626;DHT22;19038;50.922;11.880;2022-09-30T22:47:30;10.00;70.00
32626;DHT22;19038;50.922;11.880;2022-09-30T22:52:30;10.00;70.10
32626;DHT22;19038;50.922;11.880;2022-09-30T22:57:30;9.90;71.00
32626;DHT22;19038;50.922;11.880;2022-09-30T23:02:30;9.90;71.00
32626;DHT22;19038;50.922;11.880;2022-09-30T23:07:31;9.90;71.00
32626;DHT22;19038;50.922;11.880;2022-09-30T23:12:30;9.80;71.00
32626;DHT22;19038;50.922;11.880;2022-09-30T23:17:30;9.80;71.00
32626;DHT22;19038;50.922;11.880;2022-09-30T23:22:30;9.70;71.10
32626;DHT22;19038;50.922;11.880;2022-09-30T23:27:30;9.70;71.30
32626;DHT22;19038;50.922;11.880;2022-09-30T23:32:30;9.60;71.20
32626;DHT22;19038;50.922;11.880;2022-09-30T23:37:30;9.60;71.20
32626;DHT22;19038;50.922;11.880;2022-09-30T23:42:30;9.60;71.40
32626;DHT22;19038;50.922;11.880;2022-09-30T23:47:30;9.50;71.60
32626;DHT22;19038;50.922;11.880;2022-09-30T23:52:30;9.50;71.30
32626;DHT22;19038;50.922;11.880;2022-09-30T23:57:30;9.40;71.50
